createdAt,value
2018-10-07T00:00:12.246Z,69.60
2018-10-07T00:01:12.235Z,71.10
2018-10-07T00:02:12.219Z,73.40
2018-10-07T00:03:12.204Z,75.20
2018-10-07T00:04:12.190Z,76.10
2018-10-07T00:05:12.183Z,76.20
2018-10-07T00:06:12.166Z,74.50
2018-10-07T00:07:12.155Z,74.40
2018-10-07T00:08:12.135Z,70.80
2018-10-07T00:09:12.137Z,76.20
2018-10-07T00:10:12.115Z,75.40
2018-10-07T00:11:12.105Z,78.40
2018-10-07T00:12:12.095Z,78.20
2018-10-07T00:13:12.074Z,80.50
2018-10-07T00:14:12.055Z,79.30
2018-10-07T00:15:12.040Z,79.40
2018-10-07T00:16:12.029Z,81.40
2018-10-07T00:17:12.014Z,79.30
2018-10-07T00:18:11.999Z,77.50
2018-10-07T00:19:11.984Z,78.00
2018-10-07T00:20:11.972Z,78.50
2018-10-07T00:21:11.956Z,79.40
2018-10-07T00:22:11.944Z,79.10
2018-10-07T00:23:11.930Z,80.60
2018-10-07T00:24:11.918Z,77.90
2018-10-07T00:25:11.903Z,79.90
2018-10-07T00:26:11.892Z,81.50
2018-10-07T00:27:11.909Z,78.30
2018-10-07T00:28:11.863Z,77.10
2018-10-07T00:29:11.847Z,80.40
2018-10-07T00:30:11.837Z,79.30
2018-10-07T00:31:11.818Z,82.00
2018-10-07T00:32:11.808Z,77.90
2018-10-07T00:33:11.791Z,77.90
2018-10-07T00:34:11.778Z,78.70
2018-10-07T00:35:11.765Z,78.80
2018-10-07T00:36:11.752Z,79.10
2018-10-07T00:37:11.734Z,77.40
2018-10-07T00:38:11.721Z,77.90
2018-10-07T00:39:11.708Z,78.10
2018-10-07T00:40:11.694Z,79.00
2018-10-07T00:41:11.682Z,78.60
2018-10-07T00:42:11.684Z,75.70
2018-10-07T00:43:11.652Z,77.40
2018-10-07T00:44:11.637Z,78.80
2018-10-07T00:45:11.655Z,77.50
2018-10-07T00:46:11.615Z,76.60
2018-10-07T00:47:11.594Z,80.10
2018-10-07T00:48:11.581Z,79.30
2018-10-07T00:49:11.565Z,79.20
2018-10-07T00:50:11.553Z,78.60
2018-10-07T00:51:11.539Z,76.90
2018-10-07T00:52:11.529Z,76.50
2018-10-07T00:53:11.510Z,76.70
2018-10-07T00:54:11.496Z,77.50
2018-10-07T00:55:11.485Z,76.50
2018-10-07T00:56:11.475Z,78.40
2018-10-07T00:57:11.454Z,78.80
2018-10-07T00:58:11.442Z,79.30
2018-10-07T00:59:11.426Z,75.10
2018-10-07T01:00:11.414Z,76.00
2018-10-07T01:01:11.401Z,75.60
2018-10-07T01:02:11.385Z,74.60
2018-10-07T01:03:11.372Z,76.90
2018-10-07T01:04:11.357Z,74.90
2018-10-07T01:05:11.343Z,77.00
2018-10-07T01:06:11.326Z,73.30
2018-10-07T01:07:11.320Z,76.80
2018-10-07T01:08:11.298Z,73.00
2018-10-07T01:09:11.285Z,77.30
2018-10-07T01:11:11.255Z,75.60
2018-10-07T01:12:11.244Z,73.30
2018-10-07T01:13:11.234Z,72.30
2018-10-07T01:14:11.216Z,74.00
2018-10-07T01:15:11.199Z,74.70
2018-10-07T01:16:11.183Z,72.70
2018-10-07T01:17:11.173Z,75.90
2018-10-07T01:18:11.167Z,72.60
2018-10-07T01:19:11.145Z,70.60
2018-10-07T01:20:11.128Z,73.50
2018-10-07T01:21:11.116Z,71.70
2018-10-07T01:22:11.111Z,73.10
2018-10-07T01:23:11.088Z,72.30
2018-10-07T01:24:11.070Z,73.40
2018-10-07T01:25:11.052Z,74.30
2018-10-07T01:26:11.049Z,71.10
2018-10-07T01:27:11.027Z,70.90
2018-10-07T01:28:11.009Z,70.00
2018-10-07T01:29:11.002Z,68.90
2018-10-07T01:30:10.985Z,68.50
2018-10-07T01:31:10.971Z,67.00
2018-10-07T01:32:10.953Z,68.10
2018-10-07T01:33:10.939Z,67.80
2018-10-07T01:34:11.141Z,66.50
2018-10-07T01:35:10.914Z,64.30
2018-10-07T01:36:10.900Z,66.80
2018-10-07T01:37:10.883Z,67.90
2018-10-07T01:38:10.869Z,64.50
2018-10-07T01:39:10.857Z,68.10
2018-10-07T01:40:10.842Z,64.30
2018-10-07T01:41:10.829Z,64.70
2018-10-07T01:42:10.815Z,62.30
2018-10-07T01:43:10.802Z,63.00
2018-10-07T01:44:10.819Z,61.20
2018-10-07T01:45:10.771Z,61.70
2018-10-07T01:46:10.764Z,61.30
2018-10-07T01:47:10.744Z,61.10
2018-10-07T01:48:10.753Z,60.10
2018-10-07T01:49:10.716Z,61.10
2018-10-07T01:50:10.702Z,59.50
2018-10-07T01:51:10.939Z,58.40
2018-10-07T01:52:10.680Z,59.90
2018-10-07T01:53:10.659Z,57.40
2018-10-07T01:54:10.645Z,58.40
2018-10-07T01:55:10.631Z,58.60
2018-10-07T01:56:10.620Z,56.70
2018-10-07T01:57:10.601Z,55.80
2018-10-07T01:58:10.593Z,54.90
2018-10-07T01:59:10.583Z,53.70
2018-10-07T02:00:10.875Z,52.30
2018-10-07T02:01:10.544Z,53.20
2018-10-07T02:02:10.532Z,52.50
2018-10-07T02:03:10.519Z,49.90
2018-10-07T02:04:10.502Z,49.80
2018-10-07T02:05:10.626Z,48.80
2018-10-07T02:06:10.475Z,49.00
2018-10-07T02:07:10.462Z,47.10
2018-10-07T02:08:10.446Z,47.30
2018-10-07T02:09:10.430Z,44.30
2018-10-07T02:10:10.416Z,44.10
2018-10-07T02:11:10.401Z,44.50
2018-10-07T02:12:10.388Z,41.70
2018-10-07T02:13:10.375Z,43.50
2018-10-07T02:14:10.363Z,41.60
2018-10-07T02:15:10.348Z,41.60
2018-10-07T02:16:10.331Z,43.00
2018-10-07T02:17:10.331Z,40.70
2018-10-07T02:18:10.309Z,39.90
2018-10-07T02:19:10.287Z,39.70
2018-10-07T02:20:10.273Z,40.10
2018-10-07T02:21:10.260Z,39.20
2018-10-07T02:22:10.246Z,40.20
2018-10-07T02:23:10.234Z,40.40
2018-10-07T02:24:10.237Z,40.70
2018-10-07T02:25:10.204Z,39.60
2018-10-07T02:26:10.187Z,40.60
2018-10-07T02:27:10.176Z,39.90
2018-10-07T02:28:10.160Z,41.00
2018-10-07T02:29:10.145Z,37.90
2018-10-07T02:30:10.132Z,40.20
2018-10-07T02:31:10.117Z,40.30
2018-10-07T02:32:10.100Z,40.10
2018-10-07T02:33:10.089Z,37.60
2018-10-07T02:34:10.074Z,36.30
2018-10-07T02:35:10.061Z,34.20
2018-10-07T02:36:10.043Z,35.20
2018-10-07T02:37:10.028Z,36.10
2018-10-07T02:38:10.021Z,33.30
2018-10-07T02:39:10.003Z,32.00
2018-10-07T02:40:09.985Z,28.90
2018-10-07T02:41:09.971Z,27.60
2018-10-07T02:42:09.957Z,26.00
2018-10-07T02:43:09.944Z,24.40
2018-10-07T02:44:09.926Z,23.80
2018-10-07T02:45:09.914Z,23.90
2018-10-07T02:46:09.895Z,23.10
2018-10-07T02:47:09.883Z,21.70
2018-10-07T02:48:09.867Z,22.10
2018-10-07T02:49:09.850Z,20.20
2018-10-07T02:50:09.840Z,20.60
2018-10-07T02:51:09.826Z,20.80
2018-10-07T02:52:09.807Z,20.90
2018-10-07T02:53:09.858Z,19.80
2018-10-07T02:54:09.786Z,19.80
2018-10-07T02:55:09.763Z,20.00
2018-10-07T02:56:09.754Z,20.00
2018-10-07T02:57:09.729Z,19.00
2018-10-07T02:58:09.718Z,19.60
2018-10-07T02:59:09.702Z,19.00
2018-10-07T03:00:09.687Z,19.10
2018-10-07T03:01:09.680Z,18.20
2018-10-07T03:02:09.657Z,17.00
2018-10-07T03:03:09.645Z,17.50
2018-10-07T03:04:09.628Z,17.60
2018-10-07T03:05:09.614Z,17.10
2018-10-07T03:06:09.596Z,17.90
2018-10-07T03:07:09.579Z,18.20
2018-10-07T03:08:09.566Z,16.50
2018-10-07T03:09:09.550Z,17.00
2018-10-07T03:10:09.534Z,17.30
2018-10-07T03:11:09.518Z,17.80
2018-10-07T03:12:09.507Z,16.80
2018-10-07T03:13:09.489Z,16.50
2018-10-07T03:14:09.478Z,17.40
2018-10-07T03:15:09.458Z,17.20
2018-10-07T03:16:09.442Z,17.00
2018-10-07T03:17:09.429Z,16.50
2018-10-07T03:18:09.412Z,16.20
2018-10-07T03:19:09.396Z,16.70
2018-10-07T03:20:09.380Z,16.10
2018-10-07T03:21:09.364Z,15.10
2018-10-07T03:22:09.350Z,16.00
2018-10-07T03:23:09.333Z,14.50
2018-10-07T03:24:09.320Z,13.80
2018-10-07T03:25:09.303Z,14.20
2018-10-07T03:26:09.285Z,14.20
2018-10-07T03:27:09.271Z,15.20
2018-10-07T03:28:09.253Z,14.30
2018-10-07T03:29:09.241Z,13.70
2018-10-07T03:30:09.226Z,13.70
2018-10-07T03:31:09.208Z,13.40
2018-10-07T03:32:09.191Z,12.90
2018-10-07T03:33:09.185Z,12.40
2018-10-07T03:34:09.163Z,12.60
2018-10-07T03:35:09.146Z,11.50
2018-10-07T03:36:09.128Z,11.90
2018-10-07T03:37:09.112Z,10.70
2018-10-07T03:38:09.098Z,9.60
2018-10-07T03:39:09.083Z,9.60
2018-10-07T03:40:09.066Z,9.20
2018-10-07T03:41:09.051Z,7.30
2018-10-07T03:42:09.037Z,7.90
2018-10-07T03:43:09.022Z,8.00
2018-10-07T03:44:09.006Z,7.80
2018-10-07T03:45:08.989Z,7.50
2018-10-07T03:46:08.975Z,6.30
2018-10-07T03:47:08.956Z,6.70
2018-10-07T03:48:08.950Z,5.90
2018-10-07T03:49:08.924Z,6.20
2018-10-07T03:50:08.912Z,6.70
2018-10-07T03:51:08.895Z,5.90
2018-10-07T03:52:08.876Z,6.30
2018-10-07T03:53:08.864Z,6.40
2018-10-07T03:54:08.841Z,6.40
2018-10-07T03:55:08.831Z,5.50
2018-10-07T03:56:08.817Z,6.50
2018-10-07T03:57:08.796Z,6.40
2018-10-07T03:58:08.778Z,6.00
2018-10-07T03:59:08.768Z,6.00
2018-10-07T04:00:08.748Z,6.50
2018-10-07T04:01:08.730Z,5.40
2018-10-07T04:02:08.714Z,6.10
2018-10-07T04:03:08.696Z,5.90
2018-10-07T04:04:08.683Z,6.80
2018-10-07T04:05:08.669Z,6.80
2018-10-07T04:06:08.647Z,6.50
2018-10-07T04:07:08.639Z,7.00
2018-10-07T04:08:08.615Z,6.80
2018-10-07T04:09:08.603Z,7.40
2018-10-07T04:10:08.582Z,7.50
2018-10-07T04:11:08.566Z,7.90
2018-10-07T04:12:08.550Z,7.00
2018-10-07T04:13:08.534Z,7.50
2018-10-07T04:14:08.515Z,7.10
2018-10-07T04:15:08.499Z,6.60
2018-10-07T04:16:08.487Z,7.10
2018-10-07T04:17:08.470Z,6.30
2018-10-07T04:18:08.453Z,6.10
2018-10-07T04:19:08.439Z,5.90
2018-10-07T04:20:08.424Z,6.00
2018-10-07T04:21:08.403Z,5.60
2018-10-07T04:22:08.389Z,5.50
2018-10-07T04:23:08.375Z,5.20
2018-10-07T04:24:08.355Z,4.70
2018-10-07T04:25:08.410Z,4.60
2018-10-07T04:26:08.327Z,4.30
2018-10-07T04:27:08.311Z,4.50
2018-10-07T04:28:08.295Z,4.70
2018-10-07T04:29:08.278Z,4.40
2018-10-07T04:30:08.259Z,3.90
2018-10-07T04:31:08.241Z,3.90
2018-10-07T04:32:08.226Z,3.90
2018-10-07T04:33:08.213Z,3.80
2018-10-07T04:34:08.191Z,4.00
2018-10-07T04:35:08.177Z,3.80
2018-10-07T04:36:08.162Z,3.50
2018-10-07T04:37:08.148Z,3.40
2018-10-07T04:38:08.130Z,2.80
2018-10-07T04:39:08.121Z,3.40
2018-10-07T04:40:08.103Z,3.00
2018-10-07T04:41:08.086Z,3.10
2018-10-07T04:42:08.068Z,3.50
2018-10-07T04:43:08.054Z,3.20
2018-10-07T04:44:08.027Z,3.30
2018-10-07T04:45:08.025Z,3.10
2018-10-07T04:46:08.028Z,3.50
2018-10-07T04:47:07.988Z,3.00
2018-10-07T04:48:07.969Z,3.10
2018-10-07T04:49:07.950Z,3.10
2018-10-07T04:50:07.938Z,3.30
2018-10-07T04:51:07.924Z,3.20
2018-10-07T04:52:07.903Z,3.30
2018-10-07T04:53:07.881Z,2.90
2018-10-07T04:54:07.876Z,2.90
2018-10-07T04:55:07.848Z,3.20
2018-10-07T04:56:07.831Z,3.30
2018-10-07T04:57:07.822Z,2.70
2018-10-07T04:58:07.800Z,2.80
2018-10-07T04:59:07.787Z,2.80
2018-10-07T05:00:07.825Z,3.10
2018-10-07T05:01:07.748Z,2.90
2018-10-07T05:02:07.734Z,2.90
2018-10-07T05:03:07.716Z,3.00
2018-10-07T05:04:07.701Z,3.00
2018-10-07T05:05:07.687Z,3.00
2018-10-07T05:06:07.666Z,3.40
2018-10-07T05:07:07.660Z,2.90
2018-10-07T05:08:07.633Z,2.80
2018-10-07T05:09:07.618Z,3.00
2018-10-07T05:10:07.598Z,3.30
2018-10-07T05:11:07.584Z,3.20
2018-10-07T05:12:07.686Z,3.00
2018-10-07T05:13:07.550Z,3.20
2018-10-07T05:14:07.537Z,3.10
2018-10-07T05:15:07.517Z,3.30
2018-10-07T05:16:07.502Z,3.40
2018-10-07T05:17:07.484Z,3.00
2018-10-07T05:18:07.468Z,3.10
2018-10-07T05:19:07.451Z,3.00
2018-10-07T05:20:07.439Z,3.10
2018-10-07T05:21:07.433Z,3.30
2018-10-07T05:22:07.404Z,3.00
2018-10-07T05:23:07.389Z,3.50
2018-10-07T05:24:07.380Z,2.90
2018-10-07T05:25:07.365Z,3.00
2018-10-07T05:26:07.349Z,2.90
2018-10-07T05:27:07.318Z,3.20
2018-10-07T05:28:07.307Z,3.20
2018-10-07T05:29:07.287Z,3.50
2018-10-07T05:30:07.271Z,2.70
2018-10-07T05:31:07.256Z,2.80
2018-10-07T05:32:07.235Z,2.70
2018-10-07T05:33:07.233Z,3.20
2018-10-07T05:34:07.204Z,3.20
2018-10-07T05:35:07.186Z,2.90
2018-10-07T05:36:07.179Z,2.80
2018-10-07T05:37:07.154Z,2.90
2018-10-07T05:38:07.136Z,2.60
2018-10-07T05:39:07.121Z,2.70
2018-10-07T05:40:07.104Z,3.10
2018-10-07T05:41:07.091Z,3.10
2018-10-07T05:42:07.071Z,3.20
2018-10-07T05:43:07.060Z,3.10
2018-10-07T05:44:07.043Z,2.80
2018-10-07T05:45:07.024Z,2.50
2018-10-07T05:46:07.003Z,2.70
2018-10-07T05:47:06.993Z,3.10
2018-10-07T05:48:06.972Z,3.00
2018-10-07T05:49:06.955Z,3.00
2018-10-07T05:50:06.941Z,3.10
2018-10-07T05:51:06.933Z,2.80
2018-10-07T05:52:06.904Z,3.10
2018-10-07T05:53:06.891Z,3.00
2018-10-07T05:54:06.872Z,3.30
2018-10-07T05:55:06.856Z,3.00
2018-10-07T05:56:06.838Z,2.80
2018-10-07T05:57:06.827Z,3.40
2018-10-07T05:58:06.846Z,3.00
2018-10-07T05:59:06.797Z,3.10
2018-10-07T06:00:06.776Z,3.00
2018-10-07T06:01:06.760Z,2.90
2018-10-07T06:02:06.768Z,2.70
2018-10-07T06:03:06.731Z,3.10
2018-10-07T06:04:06.718Z,2.60
2018-10-07T06:05:06.732Z,2.90
2018-10-07T06:06:06.677Z,2.90
2018-10-07T06:07:06.659Z,2.90
2018-10-07T06:08:06.642Z,2.80
2018-10-07T06:09:06.629Z,2.80
2018-10-07T06:10:06.612Z,2.50
2018-10-07T06:11:06.593Z,2.50
2018-10-07T06:12:06.583Z,2.30
2018-10-07T06:13:06.564Z,2.40
2018-10-07T06:14:06.549Z,2.30
2018-10-07T06:15:06.527Z,2.30
2018-10-07T06:16:06.509Z,2.50
2018-10-07T06:17:06.502Z,2.10
2018-10-07T06:18:06.477Z,2.00
2018-10-07T06:19:06.461Z,2.20
2018-10-07T06:20:06.443Z,1.70
2018-10-07T06:21:06.426Z,2.00
2018-10-07T06:22:06.426Z,2.40
2018-10-07T06:23:06.397Z,1.80
2018-10-07T06:24:06.376Z,2.00
2018-10-07T06:25:06.370Z,2.40
2018-10-07T06:26:06.343Z,1.90
2018-10-07T06:27:06.328Z,1.90
2018-10-07T06:28:06.314Z,2.20
2018-10-07T06:29:06.298Z,2.00
2018-10-07T06:30:06.284Z,2.10
2018-10-07T06:31:06.269Z,1.90
2018-10-07T06:32:06.247Z,1.90
2018-10-07T06:33:06.237Z,1.80
2018-10-07T06:34:06.220Z,1.80
2018-10-07T06:35:06.203Z,1.90
2018-10-07T06:36:06.189Z,1.60
2018-10-07T06:37:06.173Z,2.00
2018-10-07T06:38:06.161Z,2.00
2018-10-07T06:39:06.147Z,2.00
2018-10-07T06:40:06.129Z,2.10
2018-10-07T06:41:06.124Z,1.90
2018-10-07T06:42:06.101Z,1.60
2018-10-07T06:43:06.101Z,2.00
2018-10-07T06:44:06.076Z,2.00
2018-10-07T06:45:06.062Z,1.90
2018-10-07T06:46:06.046Z,2.00
2018-10-07T06:47:06.039Z,1.90
2018-10-07T06:48:06.019Z,2.00
2018-10-07T06:49:06.006Z,1.40
2018-10-07T06:50:05.985Z,2.00
2018-10-07T06:51:05.978Z,1.80
2018-10-07T06:52:05.954Z,1.90
2018-10-07T06:53:05.947Z,2.00
2018-10-07T06:54:05.925Z,1.90
2018-10-07T06:55:05.909Z,2.20
2018-10-07T06:56:05.895Z,1.90
2018-10-07T06:57:05.877Z,1.80
2018-10-07T06:58:05.869Z,1.90
2018-10-07T06:59:05.847Z,1.80
2018-10-07T07:00:05.832Z,1.70
2018-10-07T07:01:05.816Z,1.70
2018-10-07T07:02:05.801Z,2.00
2018-10-07T07:03:05.784Z,1.90
2018-10-07T07:04:05.776Z,1.60
2018-10-07T07:05:05.752Z,1.80
2018-10-07T07:06:05.737Z,1.80
2018-10-07T07:07:05.722Z,2.10
2018-10-07T07:08:05.705Z,1.80
2018-10-07T07:09:05.691Z,1.60
2018-10-07T07:10:05.674Z,1.80
2018-10-07T07:11:05.666Z,1.60
2018-10-07T07:12:05.645Z,1.80
2018-10-07T07:13:05.719Z,1.70
2018-10-07T07:14:05.609Z,1.90
2018-10-07T07:15:05.598Z,2.00
2018-10-07T07:16:05.580Z,1.90
2018-10-07T07:17:05.570Z,1.90
2018-10-07T07:18:05.547Z,2.00
2018-10-07T07:19:05.532Z,1.70
2018-10-07T07:20:05.537Z,1.70
2018-10-07T07:21:05.503Z,1.70
2018-10-07T07:22:05.481Z,1.50
2018-10-07T07:23:05.467Z,1.50
2018-10-07T07:24:05.452Z,1.70
2018-10-07T07:25:05.435Z,1.60
2018-10-07T07:26:05.420Z,1.90
2018-10-07T07:27:05.455Z,1.80
2018-10-07T07:28:05.476Z,18.40
2018-10-07T07:29:05.372Z,6.40
2018-10-07T07:30:05.436Z,8.00
2018-10-07T07:31:05.341Z,3.30
2018-10-07T07:32:05.338Z,7.70
2018-10-07T07:33:05.309Z,8.60
2018-10-07T07:34:05.294Z,2.50
2018-10-07T07:35:05.280Z,1.90
2018-10-07T07:36:05.264Z,1.70
2018-10-07T07:37:05.259Z,1.90
2018-10-07T07:38:05.238Z,1.70
2018-10-07T07:39:05.225Z,1.70
2018-10-07T07:40:05.209Z,1.80
2018-10-07T07:41:05.194Z,1.90
2018-10-07T07:42:05.178Z,1.70
2018-10-07T07:43:05.164Z,1.50
2018-10-07T07:44:05.157Z,1.60
2018-10-07T07:45:05.144Z,1.80
2018-10-07T07:46:05.129Z,1.70
2018-10-07T07:47:05.115Z,1.50
2018-10-07T07:48:05.122Z,1.50
2018-10-07T07:49:05.210Z,1.50
2018-10-07T07:50:05.098Z,1.30
2018-10-07T07:51:05.075Z,1.40
2018-10-07T07:52:05.065Z,1.70
2018-10-07T07:53:05.057Z,1.40
2018-10-07T07:54:05.050Z,1.50
2018-10-07T07:55:05.040Z,1.50
2018-10-07T07:56:05.037Z,1.40
2018-10-07T07:57:05.030Z,1.30
2018-10-07T07:58:05.021Z,1.60
2018-10-07T07:59:05.015Z,1.40
2018-10-07T08:00:05.011Z,1.50
2018-10-07T08:01:05.016Z,1.60
2018-10-07T08:02:05.003Z,1.30
2018-10-07T08:03:04.996Z,1.30
2018-10-07T08:04:04.990Z,1.30
2018-10-07T08:05:04.988Z,1.60
2018-10-07T08:06:04.984Z,1.60
2018-10-07T08:07:05.094Z,1.50
2018-10-07T08:08:04.982Z,1.50
2018-10-07T08:09:04.985Z,1.40
2018-10-07T08:10:04.972Z,1.40
2018-10-07T08:11:04.972Z,1.50
2018-10-07T08:12:04.967Z,1.40
2018-10-07T08:13:04.971Z,1.60
2018-10-07T08:14:04.965Z,1.50
2018-10-07T08:15:04.966Z,1.20
2018-10-07T08:16:04.961Z,1.50
2018-10-07T08:17:04.965Z,1.50
2018-10-07T08:18:04.962Z,1.30
2018-10-07T08:19:04.961Z,3.80
2018-10-07T08:20:04.965Z,9.70
2018-10-07T08:21:04.959Z,4.10
2018-10-07T08:22:04.962Z,1.80
2018-10-07T08:23:04.957Z,3.00
2018-10-07T08:24:04.956Z,5.50
2018-10-07T08:25:04.967Z,3.50
2018-10-07T08:26:04.961Z,1.50
2018-10-07T08:27:04.961Z,3.50
2018-10-07T08:28:04.963Z,16.30
2018-10-07T08:29:04.961Z,12.40
2018-10-07T08:30:04.964Z,6.80
2018-10-07T08:31:04.963Z,21.60
2018-10-07T08:32:04.963Z,5.20
2018-10-07T08:33:04.968Z,1.60
2018-10-07T08:34:04.968Z,1.70
2018-10-07T08:35:05.019Z,1.40
2018-10-07T08:36:04.967Z,1.60
2018-10-07T08:37:04.966Z,1.40
2018-10-07T08:38:04.970Z,1.40
2018-10-07T08:39:04.970Z,1.60
2018-10-07T08:40:04.974Z,1.60
2018-10-07T08:41:04.972Z,1.70
2018-10-07T08:42:04.974Z,1.40
2018-10-07T08:43:04.977Z,1.60
2018-10-07T08:44:04.977Z,1.20
2018-10-07T08:45:04.978Z,1.50
2018-10-07T08:46:04.986Z,1.70
2018-10-07T08:47:04.982Z,1.30
2018-10-07T08:48:04.990Z,1.40
2018-10-07T08:49:04.982Z,1.50
2018-10-07T08:50:04.985Z,1.50
2018-10-07T08:51:04.987Z,1.50
2018-10-07T08:52:04.987Z,1.80
2018-10-07T08:53:05.017Z,1.50
2018-10-07T08:54:04.996Z,1.90
2018-10-07T08:55:04.997Z,1.70
2018-10-07T08:56:05.068Z,2.20
2018-10-07T08:57:04.996Z,1.80
2018-10-07T08:58:04.997Z,2.00
2018-10-07T08:59:05.000Z,1.90
2018-10-07T09:00:04.999Z,1.60
2018-10-07T09:01:05.002Z,1.50
2018-10-07T09:02:05.034Z,1.40
2018-10-07T09:03:05.004Z,3.20
2018-10-07T09:04:05.015Z,11.70
2018-10-07T09:05:05.007Z,3.50
2018-10-07T09:06:05.008Z,2.10
2018-10-07T09:07:05.008Z,3.00
2018-10-07T09:08:05.010Z,2.80
2018-10-07T09:09:05.027Z,1.80
2018-10-07T09:10:05.031Z,1.50
2018-10-07T09:11:05.015Z,1.40
2018-10-07T09:12:05.018Z,1.40
2018-10-07T09:13:05.027Z,1.80
2018-10-07T09:14:05.018Z,1.40
2018-10-07T09:15:05.013Z,1.40
2018-10-07T09:16:05.017Z,1.40
2018-10-07T09:17:05.015Z,1.50
2018-10-07T09:18:05.016Z,1.30
2018-10-07T09:19:05.018Z,1.30
2018-10-07T09:20:05.014Z,1.40
2018-10-07T09:21:05.091Z,1.50
2018-10-07T09:22:05.016Z,1.40
2018-10-07T09:23:05.016Z,1.40
2018-10-07T09:24:05.010Z,1.40
2018-10-07T09:25:05.012Z,1.70
2018-10-07T09:26:05.009Z,1.50
2018-10-07T09:27:05.139Z,1.50
2018-10-07T09:28:05.006Z,1.70
2018-10-07T09:29:05.007Z,1.40
2018-10-07T09:30:05.007Z,1.50
2018-10-07T09:31:05.007Z,1.40
2018-10-07T09:32:05.005Z,1.60
2018-10-07T09:33:05.010Z,1.70
2018-10-07T09:34:05.000Z,1.30
2018-10-07T09:35:05.004Z,1.60
2018-10-07T09:36:04.997Z,1.40
2018-10-07T09:37:05.012Z,1.60
2018-10-07T09:38:04.999Z,1.90
2018-10-07T09:39:04.999Z,11.10
2018-10-07T09:40:04.993Z,11.00
2018-10-07T09:41:04.988Z,3.20
2018-10-07T09:42:04.986Z,4.00
2018-10-07T09:43:04.987Z,4.00
2018-10-07T09:44:04.987Z,1.80
2018-10-07T09:45:04.982Z,2.40
2018-10-07T09:46:04.984Z,19.50
2018-10-07T09:47:05.009Z,3.00
2018-10-07T09:48:04.975Z,3.00
2018-10-07T09:49:04.972Z,3.20
2018-10-07T09:50:04.967Z,2.00
2018-10-07T09:51:04.964Z,2.70
2018-10-07T09:52:04.962Z,1.60
2018-10-07T09:53:04.956Z,1.60
2018-10-07T09:54:04.956Z,1.40
2018-10-07T09:55:04.951Z,1.60
2018-10-07T09:56:04.949Z,1.70
2018-10-07T09:57:04.947Z,1.50
2018-10-07T09:58:05.021Z,1.90
2018-10-07T09:59:04.941Z,1.80
2018-10-07T10:00:04.929Z,1.60
2018-10-07T10:01:04.953Z,1.90
2018-10-07T10:02:04.921Z,1.70
2018-10-07T10:03:04.922Z,1.70
2018-10-07T10:04:04.933Z,1.70
2018-10-07T10:05:04.909Z,1.80
2018-10-07T10:06:04.905Z,1.70
2018-10-07T10:07:04.913Z,1.50
2018-10-07T10:08:04.896Z,1.60
2018-10-07T10:09:04.895Z,1.70
2018-10-07T10:10:04.888Z,1.80
2018-10-07T10:11:04.923Z,1.60
2018-10-07T10:12:04.877Z,1.90
2018-10-07T10:13:04.874Z,1.80
2018-10-07T10:14:04.940Z,1.80
2018-10-07T10:15:04.865Z,1.80
2018-10-07T10:16:04.867Z,2.00
2018-10-07T10:17:04.855Z,1.70
2018-10-07T10:18:04.851Z,1.70
2018-10-07T10:19:04.862Z,1.50
2018-10-07T10:20:04.838Z,1.70
2018-10-07T10:21:04.835Z,1.80
2018-10-07T10:22:04.832Z,1.70
2018-10-07T10:23:04.829Z,1.80
2018-10-07T10:24:04.820Z,1.90
2018-10-07T10:25:04.818Z,1.60
2018-10-07T10:26:04.827Z,1.60
2018-10-07T10:27:04.804Z,1.80
2018-10-07T10:28:04.804Z,1.90
2018-10-07T10:29:04.793Z,1.90
2018-10-07T10:30:04.791Z,1.70
2018-10-07T10:31:04.781Z,1.80
2018-10-07T10:32:04.778Z,1.90
2018-10-07T10:33:04.770Z,1.80
2018-10-07T10:34:04.765Z,1.60
2018-10-07T10:35:04.768Z,1.60
2018-10-07T10:36:04.752Z,1.70
2018-10-07T10:37:04.747Z,1.80
2018-10-07T10:38:04.749Z,1.40
2018-10-07T10:39:04.738Z,1.70
2018-10-07T10:40:04.751Z,1.50
2018-10-07T10:41:04.732Z,1.80
2018-10-07T10:42:04.721Z,31.50
2018-10-07T10:43:04.713Z,8.10
2018-10-07T10:44:04.719Z,4.10
2018-10-07T10:45:04.699Z,2.00
2018-10-07T10:46:04.691Z,11.40
2018-10-07T10:47:04.685Z,1.70
2018-10-07T10:48:04.740Z,1.30
2018-10-07T10:49:04.670Z,1.50
2018-10-07T10:50:04.665Z,1.40
2018-10-07T10:51:04.659Z,1.60
2018-10-07T10:52:04.660Z,1.60
2018-10-07T10:53:04.648Z,1.20
2018-10-07T10:54:04.640Z,1.30
2018-10-07T10:55:04.676Z,1.50
2018-10-07T10:56:04.626Z,1.80
2018-10-07T10:57:04.622Z,1.70
2018-10-07T10:58:04.616Z,1.60
2018-10-07T10:59:04.605Z,1.40
2018-10-07T11:00:04.602Z,1.40
2018-10-07T11:01:04.659Z,1.40
2018-10-07T11:02:04.589Z,1.50
2018-10-07T11:03:04.578Z,1.80
2018-10-07T11:04:04.568Z,1.50
2018-10-07T11:05:04.563Z,1.70
2018-10-07T11:06:04.556Z,1.60
2018-10-07T11:07:04.549Z,1.50
2018-10-07T11:08:04.543Z,1.80
2018-10-07T11:09:04.548Z,1.60
2018-10-07T11:10:04.529Z,1.50
2018-10-07T11:11:04.522Z,1.70
2018-10-07T11:12:04.513Z,1.60
2018-10-07T11:13:04.512Z,1.60
2018-10-07T11:14:04.500Z,1.40
2018-10-07T11:15:04.507Z,1.60
2018-10-07T11:16:04.498Z,1.50
2018-10-07T11:17:04.478Z,1.70
2018-10-07T11:18:04.475Z,1.60
2018-10-07T11:19:04.465Z,1.90
2018-10-07T11:20:04.456Z,1.80
2018-10-07T11:21:04.449Z,1.60
2018-10-07T11:22:04.445Z,1.50
2018-10-07T11:23:04.434Z,1.80
2018-10-07T11:24:04.427Z,1.50
2018-10-07T11:25:04.421Z,20.00
2018-10-07T11:26:04.420Z,5.20
2018-10-07T11:27:04.408Z,3.00
2018-10-07T11:28:04.401Z,2.60
2018-10-07T11:29:04.391Z,2.40
2018-10-07T11:30:04.384Z,2.60
2018-10-07T11:31:04.377Z,1.80
2018-10-07T11:32:04.377Z,1.80
2018-10-07T11:33:04.365Z,1.70
2018-10-07T11:34:04.361Z,1.60
2018-10-07T11:35:04.358Z,1.90
2018-10-07T11:36:04.344Z,1.80
2018-10-07T11:37:04.331Z,1.80
2018-10-07T11:38:04.329Z,1.50
2018-10-07T11:39:04.322Z,1.80
2018-10-07T11:40:04.306Z,1.70
2018-10-07T11:41:04.304Z,1.90
2018-10-07T11:42:04.293Z,1.70
2018-10-07T11:43:04.285Z,1.80
2018-10-07T11:44:04.284Z,1.70
2018-10-07T11:45:04.282Z,1.80
2018-10-07T11:46:04.265Z,1.90
2018-10-07T11:47:04.258Z,1.80
2018-10-07T11:48:04.249Z,1.90
2018-10-07T11:49:04.242Z,1.80
2018-10-07T11:50:04.247Z,1.80
2018-10-07T11:51:04.228Z,2.00
2018-10-07T11:52:04.227Z,1.90
2018-10-07T11:53:04.213Z,2.20
2018-10-07T11:54:04.202Z,1.90
2018-10-07T11:55:04.197Z,1.80
2018-10-07T11:56:04.201Z,2.10
2018-10-07T11:57:04.179Z,1.50
2018-10-07T11:58:04.172Z,12.00
2018-10-07T11:59:04.162Z,4.10
2018-10-07T12:00:04.165Z,8.30
2018-10-07T12:01:04.147Z,4.20
2018-10-07T12:02:04.149Z,1.90
2018-10-07T12:03:04.137Z,2.00
2018-10-07T12:04:04.126Z,2.10
2018-10-07T12:05:04.124Z,1.70
2018-10-07T12:06:04.115Z,2.30
2018-10-07T12:07:04.102Z,1.70
2018-10-07T12:08:04.095Z,2.10
2018-10-07T12:09:04.085Z,2.00
2018-10-07T12:10:04.148Z,2.00
2018-10-07T12:11:04.073Z,2.50
2018-10-07T12:12:04.072Z,2.00
2018-10-07T12:13:04.061Z,3.60
2018-10-07T12:14:04.049Z,2.20
2018-10-07T12:15:04.043Z,2.00
2018-10-07T12:16:04.037Z,2.10
2018-10-07T12:17:04.034Z,1.80
2018-10-07T12:18:04.025Z,2.00
2018-10-07T12:19:04.024Z,1.80
2018-10-07T12:20:04.008Z,2.10
2018-10-07T12:21:03.995Z,1.90
2018-10-07T12:22:03.994Z,1.90
2018-10-07T12:23:03.980Z,2.00
2018-10-07T12:24:03.974Z,1.90
2018-10-07T12:25:03.964Z,2.00
2018-10-07T12:26:03.958Z,1.90
2018-10-07T12:27:03.952Z,2.10
2018-10-07T12:28:03.946Z,1.80
2018-10-07T12:29:03.997Z,1.90
2018-10-07T12:30:03.934Z,1.80
2018-10-07T12:31:03.930Z,2.10
2018-10-07T12:32:03.940Z,2.20
2018-10-07T12:33:03.908Z,1.90
2018-10-07T12:34:03.916Z,1.90
2018-10-07T12:35:03.912Z,1.90
2018-10-07T12:36:03.882Z,1.90
2018-10-07T12:37:03.883Z,1.90
2018-10-07T12:38:03.870Z,1.70
2018-10-07T12:39:03.864Z,1.90
2018-10-07T12:40:03.852Z,1.90
2018-10-07T12:41:03.853Z,1.80
2018-10-07T12:42:03.841Z,2.00
2018-10-07T12:43:03.830Z,1.90
2018-10-07T12:44:03.820Z,2.00
2018-10-07T12:45:03.819Z,1.90
2018-10-07T12:46:03.810Z,2.00
2018-10-07T12:47:03.796Z,2.00
2018-10-07T12:48:03.788Z,2.60
2018-10-07T12:49:03.783Z,25.20
2018-10-07T12:50:03.777Z,9.30
2018-10-07T12:51:03.773Z,6.30
2018-10-07T12:52:03.759Z,2.60
2018-10-07T12:53:03.753Z,1.90
2018-10-07T12:54:03.794Z,2.10
2018-10-07T12:55:03.743Z,2.00
2018-10-07T12:56:03.725Z,2.10
2018-10-07T12:57:03.719Z,2.30
2018-10-07T12:58:03.714Z,2.20
2018-10-07T12:59:03.704Z,2.10
2018-10-07T13:00:03.697Z,2.30
2018-10-07T13:01:03.686Z,2.20
2018-10-07T13:02:03.689Z,2.00
2018-10-07T13:03:03.691Z,2.30
2018-10-07T13:04:03.665Z,2.00
2018-10-07T13:05:03.658Z,2.00
2018-10-07T13:06:03.655Z,2.20
2018-10-07T13:07:03.645Z,1.80
2018-10-07T13:08:03.637Z,1.90
2018-10-07T13:09:03.628Z,2.00
2018-10-07T13:10:03.620Z,2.10
2018-10-07T13:11:03.612Z,2.10